sensor_id;sensor_type;location;lat;lon;timestamp;temperature;humidity
69598;SHT31;70000;51.176;-115.568;2023-07-20T00:00:00;34.50;15.02
69598;SHT31;70000;51.176;-115.568;2023-07-20T00:02:42;34.17;15.49
69598;SHT31;70000;51.176;-115.568;2023-07-20T00:05:11;33.91;15.82
69598;SHT31;70000;51.176;-115.568;2023-07-20T00:07:40;33.69;15.89
69598;SHT31;70000;51.176;-115.568;2023-07-20T00:10:09;33.41;16.38
69598;SHT31;70000;51.176;-115.568;2023-07-20T00:12:38;33.22;16.45
69598;SHT31;70000;51.176;-115.568;2023-07-20T00:15:07;33.05;17.15
69598;SHT31;70000;51.176;-115.568;2023-07-20T00:17:36;32.93;16.74
69598;SHT31;70000;51.176;-115.568;2023-07-20T00:20:07;32.77;16.71
69598;SHT31;70000;51.176;-115.568;2023-07-20T00:22:37;32.58;16.83
69598;SHT31;70000;51.176;-115.568;2023-07-20T00:25:06;32.36;16.97
69598;SHT31;70000;51.176;-115.568;2023-07-20T00:27:35;32.26;17.75
69598;SHT31;70000;51.176;-115.568;2023-07-20T00:30:06;32.33;17.93
69598;SHT31;70000;51.176;-115.568;2023-07-20T00:32:39;32.54;17.96
69598;SHT31;70000;51.176;-115.568;2023-07-20T00:35:19;32.67;17.29
69598;SHT31;70000;51.176;-115.568;2023-07-20T00:37:48;32.56;16.98
69598;SHT31;70000;51.176;-115.568;2023-07-20T00:40:22;32.48;17.24
69598;SHT31;70000;51.176;-115.568;2023-07-20T00:42:57;32.65;17.18
69598;SHT31;70000;51.176;-115.568;2023-07-20T00:45:26;33.14;17.40
69598;SHT31;70000;51.176;-115.568;2023-07-20T00:48:12;34.31;16.96
69598;SHT31;70000;51.176;-115.568;2023-07-20T00:50:42;36.00;15.84
69598;SHT31;70000;51.176;-115.568;2023-07-20T00:53:13;37.31;14.98
69598;SHT31;70000;51.176;-115.568;2023-07-20T00:55:43;38.24;14.56
69598;SHT31;70000;51.176;-115.568;2023-07-20T00:58:13;39.46;14.39
69598;SHT31;70000;51.176;-115.568;2023-07-20T01:01:00;40.24;13.57
69598;SHT31;70000;51.176;-115.568;2023-07-20T01:03:35;39.75;13.61
69598;SHT31;70000;51.176;-115.568;2023-07-20T01:06:10;38.63;13.64
69598;SHT31;70000;51.176;-115.568;2023-07-20T01:14:42;35.38;15.38
69598;SHT31;70000;51.176;-115.568;2023-07-20T01:32:10;31.57;17.73
69598;SHT31;70000;51.176;-115.568;2023-07-20T01:34:40;31.20;17.91
69598;SHT31;70000;51.176;-115.568;2023-07-20T01:37:13;30.84;18.51
69598;SHT31;70000;51.176;-115.568;2023-07-20T01:39:48;30.43;18.71
69598;SHT31;70000;51.176;-115.568;2023-07-20T01:42:20;30.14;19.10
69598;SHT31;70000;51.176;-115.568;2023-07-20T01:44:53;29.90;19.28
69598;SHT31;70000;51.176;-115.568;2023-07-20T01:47:23;29.68;19.60
69598;SHT31;70000;51.176;-115.568;2023-07-20T01:50:09;29.43;19.88
69598;SHT31;70000;51.176;-115.568;2023-07-20T01:52:40;29.26;20.07
69598;SHT31;70000;51.176;-115.568;2023-07-20T01:55:09;29.10;20.48
69598;SHT31;70000;51.176;-115.568;2023-07-20T01:57:39;28.99;20.78
69598;SHT31;70000;51.176;-115.568;2023-07-20T02:00:11;28.91;22.17
69598;SHT31;70000;51.176;-115.568;2023-07-20T02:02:41;28.72;21.87
69598;SHT31;70000;51.176;-115.568;2023-07-20T02:05:11;28.43;22.62
69598;SHT31;70000;51.176;-115.568;2023-07-20T02:07:43;28.21;22.28
69598;SHT31;70000;51.176;-115.568;2023-07-20T02:10:16;28.09;23.64
69598;SHT31;70000;51.176;-115.568;2023-07-20T02:12:46;28.00;24.35
69598;SHT31;70000;51.176;-115.568;2023-07-20T02:15:16;27.92;23.52
69598;SHT31;70000;51.176;-115.568;2023-07-20T02:17:46;27.80;23.23
69598;SHT31;70000;51.176;-115.568;2023-07-20T02:20:21;27.63;23.28
69598;SHT31;70000;51.176;-115.568;2023-07-20T02:22:54;27.32;23.49
69598;SHT31;70000;51.176;-115.568;2023-07-20T02:25:24;27.08;24.16
69598;SHT31;70000;51.176;-115.568;2023-07-20T02:27:57;26.81;24.60
69598;SHT31;70000;51.176;-115.568;2023-07-20T02:30:29;26.62;24.80
69598;SHT31;70000;51.176;-115.568;2023-07-20T02:33:03;26.54;25.20
69598;SHT31;70000;51.176;-115.568;2023-07-20T02:35:34;26.44;26.20
69598;SHT31;70000;51.176;-115.568;2023-07-20T02:38:03;26.31;27.33
69598;SHT31;70000;51.176;-115.568;2023-07-20T02:40:34;26.19;27.89
69598;SHT31;70000;51.176;-115.568;2023-07-20T02:43:04;26.09;28.36
69598;SHT31;70000;51.176;-115.568;2023-07-20T02:45:33;25.92;29.18
69598;SHT31;70000;51.176;-115.568;2023-07-20T02:48:03;25.72;29.81
69598;SHT31;70000;51.176;-115.568;2023-07-20T02:50:36;25.53;30.40
69598;SHT31;70000;51.176;-115.568;2023-07-20T02:53:05;25.34;30.95
69598;SHT31;70000;51.176;-115.568;2023-07-20T02:55:35;25.18;32.11
69598;SHT31;70000;51.176;-115.568;2023-07-20T02:58:05;24.99;32.71
69598;SHT31;70000;51.176;-115.568;2023-07-20T03:00:34;24.79;33.30
69598;SHT31;70000;51.176;-115.568;2023-07-20T03:03:03;24.63;34.23
69598;SHT31;70000;51.176;-115.568;2023-07-20T03:05:40;24.51;35.52
69598;SHT31;70000;51.176;-115.568;2023-07-20T03:08:10;24.38;35.89
69598;SHT31;70000;51.176;-115.568;2023-07-20T03:10:40;24.28;36.38
69598;SHT31;70000;51.176;-115.568;2023-07-20T03:13:10;24.17;35.77
69598;SHT31;70000;51.176;-115.568;2023-07-20T03:15:40;24.04;36.31
69598;SHT31;70000;51.176;-115.568;2023-07-20T03:18:10;23.95;37.14
69598;SHT31;70000;51.176;-115.568;2023-07-20T03:20:40;23.88;37.29
69598;SHT31;70000;51.176;-115.568;2023-07-20T03:23:09;23.79;37.37
69598;SHT31;70000;51.176;-115.568;2023-07-20T03:25:39;23.68;36.53
69598;SHT31;70000;51.176;-115.568;2023-07-20T03:28:08;23.56;37.46
69598;SHT31;70000;51.176;-115.568;2023-07-20T03:30:38;23.49;37.85
69598;SHT31;70000;51.176;-115.568;2023-07-20T03:33:08;23.40;37.33
69598;SHT31;70000;51.176;-115.568;2023-07-20T03:35:38;23.32;38.07
69598;SHT31;70000;51.176;-115.568;2023-07-20T03:38:11;23.25;37.77
69598;SHT31;70000;51.176;-115.568;2023-07-20T03:40:48;23.18;37.80
69598;SHT31;70000;51.176;-115.568;2023-07-20T03:43:27;23.12;37.48
69598;SHT31;70000;51.176;-115.568;2023-07-20T03:45:57;23.03;37.56
69598;SHT31;70000;51.176;-115.568;2023-07-20T03:48:27;22.91;37.61
69598;SHT31;70000;51.176;-115.568;2023-07-20T03:50:56;22.81;37.74
69598;SHT31;70000;51.176;-115.568;2023-07-20T03:53:27;22.73;38.01
69598;SHT31;70000;51.176;-115.568;2023-07-20T03:55:57;22.67;38.20
69598;SHT31;70000;51.176;-115.568;2023-07-20T03:58:27;22.58;38.36
69598;SHT31;70000;51.176;-115.568;2023-07-20T04:00:58;22.50;38.54
69598;SHT31;70000;51.176;-115.568;2023-07-20T04:03:28;22.43;38.75
69598;SHT31;70000;51.176;-115.568;2023-07-20T04:06:01;22.36;38.83
69598;SHT31;70000;51.176;-115.568;2023-07-20T04:08:31;22.30;39.04
69598;SHT31;70000;51.176;-115.568;2023-07-20T04:11:02;22.23;39.11
69598;SHT31;70000;51.176;-115.568;2023-07-20T04:13:33;22.14;39.11
69598;SHT31;70000;51.176;-115.568;2023-07-20T04:16:03;22.07;39.32
69598;SHT31;70000;51.176;-115.568;2023-07-20T04:18:33;22.01;39.44
69598;SHT31;70000;51.176;-115.568;2023-07-20T04:21:02;21.96;39.57
69598;SHT31;70000;51.176;-115.568;2023-07-20T04:23:33;21.89;39.81
69598;SHT31;70000;51.176;-115.568;2023-07-20T04:26:03;21.78;39.88
69598;SHT31;70000;51.176;-115.568;2023-07-20T04:28:36;21.73;40.09
69598;SHT31;70000;51.176;-115.568;2023-07-20T04:31:15;21.66;40.13
69598;SHT31;70000;51.176;-115.568;2023-07-20T04:33:45;21.60;40.33
69598;SHT31;70000;51.176;-115.568;2023-07-20T04:36:15;21.53;40.39
69598;SHT31;70000;51.176;-115.568;2023-07-20T04:38:48;21.47;40.45
69598;SHT31;70000;51.176;-115.568;2023-07-20T04:41:22;21.43;40.57
69598;SHT31;70000;51.176;-115.568;2023-07-20T04:43:55;21.38;40.65
69598;SHT31;70000;51.176;-115.568;2023-07-20T04:46:25;21.35;40.64
69598;SHT31;70000;51.176;-115.568;2023-07-20T04:48:54;21.31;40.81
69598;SHT31;70000;51.176;-115.568;2023-07-20T04:51:34;21.25;41.03
69598;SHT31;70000;51.176;-115.568;2023-07-20T04:54:03;21.18;41.06
69598;SHT31;70000;51.176;-115.568;2023-07-20T04:56:33;21.12;41.15
69598;SHT31;70000;51.176;-115.568;2023-07-20T04:59:03;21.08;41.18
69598;SHT31;70000;51.176;-115.568;2023-07-20T05:01:33;21.03;41.51
69598;SHT31;70000;51.176;-115.568;2023-07-20T05:04:03;20.95;41.73
69598;SHT31;70000;51.176;-115.568;2023-07-20T05:06:35;20.86;41.86
69598;SHT31;70000;51.176;-115.568;2023-07-20T05:09:06;20.82;41.80
69598;SHT31;70000;51.176;-115.568;2023-07-20T05:11:37;20.78;41.95
69598;SHT31;70000;51.176;-115.568;2023-07-20T05:14:07;20.74;42.04
69598;SHT31;70000;51.176;-115.568;2023-07-20T05:16:37;20.69;42.14
69598;SHT31;70000;51.176;-115.568;2023-07-20T05:19:06;20.66;42.19
69598;SHT31;70000;51.176;-115.568;2023-07-20T05:21:36;20.62;42.36
69598;SHT31;70000;51.176;-115.568;2023-07-20T05:24:06;20.57;42.70
69598;SHT31;70000;51.176;-115.568;2023-07-20T05:26:39;20.52;42.81
69598;SHT31;70000;51.176;-115.568;2023-07-20T05:29:08;20.46;42.88
69598;SHT31;70000;51.176;-115.568;2023-07-20T05:31:38;20.41;43.00
69598;SHT31;70000;51.176;-115.568;2023-07-20T05:34:08;20.34;43.05
69598;SHT31;70000;51.176;-115.568;2023-07-20T05:36:37;20.29;43.15
69598;SHT31;70000;51.176;-115.568;2023-07-20T05:39:23;20.24;43.27
69598;SHT31;70000;51.176;-115.568;2023-07-20T05:41:53;20.19;43.46
69598;SHT31;70000;51.176;-115.568;2023-07-20T05:44:23;20.13;43.59
69598;SHT31;70000;51.176;-115.568;2023-07-20T05:46:52;20.08;43.79
69598;SHT31;70000;51.176;-115.568;2023-07-20T05:49:24;20.03;43.87
69598;SHT31;70000;51.176;-115.568;2023-07-20T05:51:54;19.99;43.93
69598;SHT31;70000;51.176;-115.568;2023-07-20T05:54:28;19.93;44.13
69598;SHT31;70000;51.176;-115.568;2023-07-20T05:56:57;19.88;44.23
69598;SHT31;70000;51.176;-115.568;2023-07-20T05:59:27;19.83;44.28
69598;SHT31;70000;51.176;-115.568;2023-07-20T06:01:59;19.80;44.43
69598;SHT31;70000;51.176;-115.568;2023-07-20T06:04:29;19.74;44.63
69598;SHT31;70000;51.176;-115.568;2023-07-20T06:06:58;19.69;44.77
69598;SHT31;70000;51.176;-115.568;2023-07-20T06:09:27;19.64;44.81
69598;SHT31;70000;51.176;-115.568;2023-07-20T06:12:01;19.59;44.91
69598;SHT31;70000;51.176;-115.568;2023-07-20T06:14:34;19.53;45.26
69598;SHT31;70000;51.176;-115.568;2023-07-20T06:17:04;19.46;45.19
69598;SHT31;70000;51.176;-115.568;2023-07-20T06:19:34;19.39;44.68
69598;SHT31;70000;51.176;-115.568;2023-07-20T06:22:06;19.27;44.83
69598;SHT31;70000;51.176;-115.568;2023-07-20T06:24:35;19.14;45.03
69598;SHT31;70000;51.176;-115.568;2023-07-20T06:27:14;18.99;45.24
69598;SHT31;70000;51.176;-115.568;2023-07-20T06:29:44;18.83;45.21
69598;SHT31;70000;51.176;-115.568;2023-07-20T06:32:14;18.72;45.43
69598;SHT31;70000;51.176;-115.568;2023-07-20T06:34:44;18.62;45.59
69598;SHT31;70000;51.176;-115.568;2023-07-20T06:37:15;18.48;45.80
69598;SHT31;70000;51.176;-115.568;2023-07-20T06:39:48;18.38;45.89
69598;SHT31;70000;51.176;-115.568;2023-07-20T06:42:21;18.30;46.21
69598;SHT31;70000;51.176;-115.568;2023-07-20T06:44:51;18.23;46.27
69598;SHT31;70000;51.176;-115.568;2023-07-20T06:47:21;18.18;46.37
69598;SHT31;70000;51.176;-115.568;2023-07-20T06:49:51;18.08;46.57
69598;SHT31;70000;51.176;-115.568;2023-07-20T06:52:21;17.96;46.95
69598;SHT31;70000;51.176;-115.568;2023-07-20T06:54:51;17.91;46.96
69598;SHT31;70000;51.176;-115.568;2023-07-20T06:57:20;17.84;47.12
69598;SHT31;70000;51.176;-115.568;2023-07-20T06:59:52;17.77;47.07
69598;SHT31;70000;51.176;-115.568;2023-07-20T07:02:22;17.69;47.00
69598;SHT31;70000;51.176;-115.568;2023-07-20T07:04:51;17.62;46.74
69598;SHT31;70000;51.176;-115.568;2023-07-20T07:07:25;17.54;47.03
69598;SHT31;70000;51.176;-115.568;2023-07-20T07:09:55;17.47;47.01
69598;SHT31;70000;51.176;-115.568;2023-07-20T07:12:25;17.41;47.01
69598;SHT31;70000;51.176;-115.568;2023-07-20T07:14:54;17.32;47.23
69598;SHT31;70000;51.176;-115.568;2023-07-20T07:17:25;17.25;47.27
69598;SHT31;70000;51.176;-115.568;2023-07-20T07:19:54;17.22;46.95
69598;SHT31;70000;51.176;-115.568;2023-07-20T07:22:24;17.12;47.01
69598;SHT31;70000;51.176;-115.568;2023-07-20T07:24:56;17.02;47.06
69598;SHT31;70000;51.176;-115.568;2023-07-20T07:27:27;16.94;47.17
69598;SHT31;70000;51.176;-115.568;2023-07-20T07:29:59;16.85;47.11
69598;SHT31;70000;51.176;-115.568;2023-07-20T07:32:29;16.78;47.20
69598;SHT31;70000;51.176;-115.568;2023-07-20T07:35:00;16.70;47.18
69598;SHT31;70000;51.176;-115.568;2023-07-20T07:37:30;16.62;47.34
69598;SHT31;70000;51.176;-115.568;2023-07-20T07:40:12;16.57;47.49
69598;SHT31;70000;51.176;-115.568;2023-07-20T07:42:49;16.50;47.59
69598;SHT31;70000;51.176;-115.568;2023-07-20T07:45:19;16.41;47.87
69598;SHT31;70000;51.176;-115.568;2023-07-20T07:47:49;16.36;48.12
69598;SHT31;70000;51.176;-115.568;2023-07-20T07:50:18;16.30;48.20
69598;SHT31;70000;51.176;-115.568;2023-07-20T07:52:48;16.25;48.19
69598;SHT31;70000;51.176;-115.568;2023-07-20T07:55:18;16.17;48.18
69598;SHT31;70000;51.176;-115.568;2023-07-20T07:57:51;16.11;48.23
69598;SHT31;70000;51.176;-115.568;2023-07-20T08:00:23;16.02;48.44
69598;SHT31;70000;51.176;-115.568;2023-07-20T08:02:56;15.91;48.48
69598;SHT31;70000;51.176;-115.568;2023-07-20T08:05:28;15.82;48.52
69598;SHT31;70000;51.176;-115.568;2023-07-20T08:07:58;15.73;48.62
69598;SHT31;70000;51.176;-115.568;2023-07-20T08:10:31;15.65;48.70
69598;SHT31;70000;51.176;-115.568;2023-07-20T08:13:00;15.60;48.93
69598;SHT31;70000;51.176;-115.568;2023-07-20T08:15:33;15.55;49.01
69598;SHT31;70000;51.176;-115.568;2023-07-20T08:18:05;15.48;49.32
69598;SHT31;70000;51.176;-115.568;2023-07-20T08:20:36;15.42;49.59
69598;SHT31;70000;51.176;-115.568;2023-07-20T08:23:05;15.38;49.91
69598;SHT31;70000;51.176;-115.568;2023-07-20T08:25:37;15.33;50.13
69598;SHT31;70000;51.176;-115.568;2023-07-20T08:28:11;15.28;50.26
69598;SHT31;70000;51.176;-115.568;2023-07-20T08:30:51;15.22;50.53
69598;SHT31;70000;51.176;-115.568;2023-07-20T08:33:23;15.18;50.65
69598;SHT31;70000;51.176;-115.568;2023-07-20T08:35:55;15.14;50.83
69598;SHT31;70000;51.176;-115.568;2023-07-20T08:38:25;15.09;50.89
69598;SHT31;70000;51.176;-115.568;2023-07-20T08:40:54;15.05;50.86
69598;SHT31;70000;51.176;-115.568;2023-07-20T08:43:23;15.00;50.89
69598;SHT31;70000;51.176;-115.568;2023-07-20T08:45:56;14.97;50.90
69598;SHT31;70000;51.176;-115.568;2023-07-20T08:48:27;14.92;51.01
69598;SHT31;70000;51.176;-115.568;2023-07-20T08:50:58;14.87;51.21
69598;SHT31;70000;51.176;-115.568;2023-07-20T08:53:30;14.82;51.31
69598;SHT31;70000;51.176;-115.568;2023-07-20T08:56:01;14.77;51.33
69598;SHT31;70000;51.176;-115.568;2023-07-20T08:58:32;14.73;51.40
69598;SHT31;70000;51.176;-115.568;2023-07-20T09:01:04;14.68;51.50
69598;SHT31;70000;51.176;-115.568;2023-07-20T09:03:33;14.64;51.52
69598;SHT31;70000;51.176;-115.568;2023-07-20T09:06:05;14.56;51.61
69598;SHT31;70000;51.176;-115.568;2023-07-20T09:08:37;14.49;51.71
69598;SHT31;70000;51.176;-115.568;2023-07-20T09:11:11;14.43;51.81
69598;SHT31;70000;51.176;-115.568;2023-07-20T09:13:43;14.36;51.99
69598;SHT31;70000;51.176;-115.568;2023-07-20T09:16:15;14.33;52.26
69598;SHT31;70000;51.176;-115.568;2023-07-20T09:18:44;14.26;52.46
69598;SHT31;70000;51.176;-115.568;2023-07-20T09:21:15;14.19;52.75
69598;SHT31;70000;51.176;-115.568;2023-07-20T09:23:51;14.15;52.95
69598;SHT31;70000;51.176;-115.568;2023-07-20T09:26:25;14.11;53.11
69598;SHT31;70000;51.176;-115.568;2023-07-20T09:28:58;14.06;53.20
69598;SHT31;70000;51.176;-115.568;2023-07-20T09:31:27;14.02;53.34
69598;SHT31;70000;51.176;-115.568;2023-07-20T09:34:06;13.96;53.67
69598;SHT31;70000;51.176;-115.568;2023-07-20T09:36:37;13.89;53.83
69598;SHT31;70000;51.176;-115.568;2023-07-20T09:39:09;13.85;53.93
69598;SHT31;70000;51.176;-115.568;2023-07-20T09:41:39;13.82;54.09
69598;SHT31;70000;51.176;-115.568;2023-07-20T09:44:15;13.79;54.15
69598;SHT31;70000;51.176;-115.568;2023-07-20T09:46:53;13.75;54.28
69598;SHT31;70000;51.176;-115.568;2023-07-20T09:49:25;13.70;54.59
69598;SHT31;70000;51.176;-115.568;2023-07-20T09:51:59;13.66;54.75
69598;SHT31;70000;51.176;-115.568;2023-07-20T09:54:30;13.63;54.79
69598;SHT31;70000;51.176;-115.568;2023-07-20T09:57:01;13.60;54.94
69598;SHT31;70000;51.176;-115.568;2023-07-20T09:59:31;13.55;55.22
69598;SHT31;70000;51.176;-115.568;2023-07-20T10:02:01;13.49;55.54
69598;SHT31;70000;51.176;-115.568;2023-07-20T10:04:41;13.44;55.79
69598;SHT31;70000;51.176;-115.568;2023-07-20T10:07:12;13.39;56.00
69598;SHT31;70000;51.176;-115.568;2023-07-20T10:09:45;13.33;56.26
69598;SHT31;70000;51.176;-115.568;2023-07-20T10:12:17;13.28;56.41
69598;SHT31;70000;51.176;-115.568;2023-07-20T10:14:54;13.22;56.61
69598;SHT31;70000;51.176;-115.568;2023-07-20T10:18:03;13.17;56.72
69598;SHT31;70000;51.176;-115.568;2023-07-20T10:20:51;13.12;56.73
69598;SHT31;70000;51.176;-115.568;2023-07-20T10:23:26;13.06;56.99
69598;SHT31;70000;51.176;-115.568;2023-07-20T10:25:58;13.00;57.21
69598;SHT31;70000;51.176;-115.568;2023-07-20T10:28:30;12.95;57.35
69598;SHT31;70000;51.176;-115.568;2023-07-20T10:31:02;12.91;57.43
69598;SHT31;70000;51.176;-115.568;2023-07-20T10:33:32;12.89;57.54
69598;SHT31;70000;51.176;-115.568;2023-07-20T10:36:03;12.87;57.57
69598;SHT31;70000;51.176;-115.568;2023-07-20T10:41:19;12.83;57.57
69598;SHT31;70000;51.176;-115.568;2023-07-20T10:44:03;12.83;57.43
69598;SHT31;70000;51.176;-115.568;2023-07-20T10:49:09;12.68;57.69
69598;SHT31;70000;51.176;-115.568;2023-07-20T10:51:43;12.61;57.86
69598;SHT31;70000;51.176;-115.568;2023-07-20T10:56:48;12.59;57.98
69598;SHT31;70000;51.176;-115.568;2023-07-20T11:01:57;12.49;58.04
69598;SHT31;70000;51.176;-115.568;2023-07-20T11:04:39;12.47;58.12
69598;SHT31;70000;51.176;-115.568;2023-07-20T11:07:14;12.47;58.29
69598;SHT31;70000;51.176;-115.568;2023-07-20T11:09:45;12.44;58.42
69598;SHT31;70000;51.176;-115.568;2023-07-20T11:12:16;12.40;58.52
69598;SHT31;70000;51.176;-115.568;2023-07-20T11:14:56;12.36;58.64
69598;SHT31;70000;51.176;-115.568;2023-07-20T11:17:31;12.30;58.89
69598;SHT31;70000;51.176;-115.568;2023-07-20T11:20:09;12.27;58.95
69598;SHT31;70000;51.176;-115.568;2023-07-20T11:22:45;12.24;59.00
69598;SHT31;70000;51.176;-115.568;2023-07-20T11:25:15;12.22;59.12
69598;SHT31;70000;51.176;-115.568;2023-07-20T11:27:45;12.19;59.19
69598;SHT31;70000;51.176;-115.568;2023-07-20T11:30:16;12.16;59.19
69598;SHT31;70000;51.176;-115.568;2023-07-20T11:32:49;12.17;59.31
69598;SHT31;70000;51.176;-115.568;2023-07-20T11:35:18;12.15;59.25
69598;SHT31;70000;51.176;-115.568;2023-07-20T11:37:47;12.10;59.39
69598;SHT31;70000;51.176;-115.568;2023-07-20T11:40:16;12.06;59.51
69598;SHT31;70000;51.176;-115.568;2023-07-20T11:42:46;12.04;59.60
69598;SHT31;70000;51.176;-115.568;2023-07-20T11:45:20;12.01;59.60
69598;SHT31;70000;51.176;-115.568;2023-07-20T11:47:53;11.97;59.73
69598;SHT31;70000;51.176;-115.568;2023-07-20T11:50:22;11.90;59.87
69598;SHT31;70000;51.176;-115.568;2023-07-20T11:52:52;11.88;60.00
69598;SHT31;70000;51.176;-115.568;2023-07-20T11:55:22;11.87;60.14
69598;SHT31;70000;51.176;-115.568;2023-07-20T11:58:03;11.85;60.36
69598;SHT31;70000;51.176;-115.568;2023-07-20T12:00:36;11.82;60.58
69598;SHT31;70000;51.176;-115.568;2023-07-20T12:03:09;11.79;60.54
69598;SHT31;70000;51.176;-115.568;2023-07-20T12:05:41;11.77;60.58
69598;SHT31;70000;51.176;-115.568;2023-07-20T12:08:26;11.74;60.70
69598;SHT31;70000;51.176;-115.568;2023-07-20T12:10:56;11.74;60.76
69598;SHT31;70000;51.176;-115.568;2023-07-20T12:13:46;11.72;60.81
69598;SHT31;70000;51.176;-115.568;2023-07-20T12:16:15;11.71;60.95
69598;SHT31;70000;51.176;-115.568;2023-07-20T12:18:44;11.66;61.06
69598;SHT31;70000;51.176;-115.568;2023-07-20T12:21:14;11.65;61.19
69598;SHT31;70000;51.176;-115.568;2023-07-20T12:23:43;11.68;61.16
69598;SHT31;70000;51.176;-115.568;2023-07-20T12:26:13;11.68;61.37
69598;SHT31;70000;51.176;-115.568;2023-07-20T12:28:45;11.64;61.74
69598;SHT31;70000;51.176;-115.568;2023-07-20T12:31:15;11.59;61.98
69598;SHT31;70000;51.176;-115.568;2023-07-20T12:33:45;11.56;62.15
69598;SHT31;70000;51.176;-115.568;2023-07-20T12:36:14;11.56;62.34
69598;SHT31;70000;51.176;-115.568;2023-07-20T12:38:44;11.55;62.56
69598;SHT31;70000;51.176;-115.568;2023-07-20T12:41:14;11.45;62.83
69598;SHT31;70000;51.176;-115.568;2023-07-20T12:43:47;11.42;62.91
69598;SHT31;70000;51.176;-115.568;2023-07-20T12:46:18;11.43;63.03
69598;SHT31;70000;51.176;-115.568;2023-07-20T12:48:48;11.42;63.08
69598;SHT31;70000;51.176;-115.568;2023-07-20T12:51:18;11.40;63.03
69598;SHT31;70000;51.176;-115.568;2023-07-20T12:53:47;11.40;63.10
69598;SHT31;70000;51.176;-115.568;2023-07-20T12:56:17;11.38;63.22
69598;SHT31;70000;51.176;-115.568;2023-07-20T12:58:49;11.40;63.23
69598;SHT31;70000;51.176;-115.568;2023-07-20T13:01:19;11.38;63.43
69598;SHT31;70000;51.176;-115.568;2023-07-20T13:03:49;11.37;63.32
69598;SHT31;70000;51.176;-115.568;2023-07-20T13:06:20;11.38;63.41
69598;SHT31;70000;51.176;-115.568;2023-07-20T13:08:52;11.38;63.32
69598;SHT31;70000;51.176;-115.568;2023-07-20T13:11:24;11.40;63.28
69598;SHT31;70000;51.176;-115.568;2023-07-20T13:13:54;11.41;63.56
69598;SHT31;70000;51.176;-115.568;2023-07-20T13:16:22;11.41;63.75
69598;SHT31;70000;51.176;-115.568;2023-07-20T13:18:53;11.39;63.88
69598;SHT31;70000;51.176;-115.568;2023-07-20T13:21:22;11.41;64.00
69598;SHT31;70000;51.176;-115.568;2023-07-20T13:23:52;11.42;64.02
69598;SHT31;70000;51.176;-115.568;2023-07-20T13:26:22;11.41;64.14
69598;SHT31;70000;51.176;-115.568;2023-07-20T13:28:51;11.39;64.28
69598;SHT31;70000;51.176;-115.568;2023-07-20T13:31:21;11.37;64.43
69598;SHT31;70000;51.176;-115.568;2023-07-20T13:33:51;11.35;64.47
69598;SHT31;70000;51.176;-115.568;2023-07-20T13:36:25;11.34;64.56
69598;SHT31;70000;51.176;-115.568;2023-07-20T13:38:56;11.31;64.79
69598;SHT31;70000;51.176;-115.568;2023-07-20T13:41:26;11.32;64.73
69598;SHT31;70000;51.176;-115.568;2023-07-20T13:43:56;11.35;64.76
69598;SHT31;70000;51.176;-115.568;2023-07-20T13:46:26;11.39;64.79
69598;SHT31;70000;51.176;-115.568;2023-07-20T13:48:58;11.42;64.86
69598;SHT31;70000;51.176;-115.568;2023-07-20T13:51:27;11.45;64.84
69598;SHT31;70000;51.176;-115.568;2023-07-20T13:53:57;11.48;64.87
69598;SHT31;70000;51.176;-115.568;2023-07-20T13:56:46;11.50;64.89
69598;SHT31;70000;51.176;-115.568;2023-07-20T13:59:15;11.53;64.95
69598;SHT31;70000;51.176;-115.568;2023-07-20T14:01:45;11.54;65.02
69598;SHT31;70000;51.176;-115.568;2023-07-20T14:04:18;11.58;65.02
69598;SHT31;70000;51.176;-115.568;2023-07-20T14:06:47;11.65;64.73
69598;SHT31;70000;51.176;-115.568;2023-07-20T14:09:18;11.74;64.58
69598;SHT31;70000;51.176;-115.568;2023-07-20T14:11:47;11.84;64.50
69598;SHT31;70000;51.176;-115.568;2023-07-20T14:14:19;11.93;64.34
69598;SHT31;70000;51.176;-115.568;2023-07-20T14:16:51;12.00;64.26
69598;SHT31;70000;51.176;-115.568;2023-07-20T14:19:22;12.08;64.26
69598;SHT31;70000;51.176;-115.568;2023-07-20T14:21:51;12.16;64.32
69598;SHT31;70000;51.176;-115.568;2023-07-20T14:24:22;12.23;64.10
69598;SHT31;70000;51.176;-115.568;2023-07-20T14:26:54;12.31;63.83
69598;SHT31;70000;51.176;-115.568;2023-07-20T14:29:24;12.37;63.81
69598;SHT31;70000;51.176;-115.568;2023-07-20T14:31:53;12.44;63.38
69598;SHT31;70000;51.176;-115.568;2023-07-20T14:34:23;12.52;62.99
69598;SHT31;70000;51.176;-115.568;2023-07-20T14:36:52;12.60;62.99
69598;SHT31;70000;51.176;-115.568;2023-07-20T14:39:21;12.69;62.75
69598;SHT31;70000;51.176;-115.568;2023-07-20T14:41:53;12.77;62.74
69598;SHT31;70000;51.176;-115.568;2023-07-20T14:44:22;12.83;62.85
69598;SHT31;70000;51.176;-115.568;2023-07-20T14:46:52;12.88;62.72
69598;SHT31;70000;51.176;-115.568;2023-07-20T14:49:39;12.92;62.27
69598;SHT31;70000;51.176;-115.568;2023-07-20T14:52:09;12.97;62.24
69598;SHT31;70000;51.176;-115.568;2023-07-20T14:54:42;13.02;62.12
69598;SHT31;70000;51.176;-115.568;2023-07-20T14:57:11;13.08;61.88
69598;SHT31;70000;51.176;-115.568;2023-07-20T14:59:47;13.15;61.66
69598;SHT31;70000;51.176;-115.568;2023-07-20T15:02:16;13.22;61.36
69598;SHT31;70000;51.176;-115.568;2023-07-20T15:04:48;13.28;61.35
69598;SHT31;70000;51.176;-115.568;2023-07-20T15:07:21;13.35;61.22
69598;SHT31;70000;51.176;-115.568;2023-07-20T15:09:50;13.42;60.89
69598;SHT31;70000;51.176;-115.568;2023-07-20T15:12:20;13.48;60.71
69598;SHT31;70000;51.176;-115.568;2023-07-20T15:15:05;13.55;60.51
69598;SHT31;70000;51.176;-115.568;2023-07-20T15:17:43;13.64;60.43
69598;SHT31;70000;51.176;-115.568;2023-07-20T15:20:16;13.72;60.18
69598;SHT31;70000;51.176;-115.568;2023-07-20T15:22:48;13.79;60.00
69598;SHT31;70000;51.176;-115.568;2023-07-20T15:25:18;13.86;60.03
69598;SHT31;70000;51.176;-115.568;2023-07-20T15:27:48;13.95;59.75
69598;SHT31;70000;51.176;-115.568;2023-07-20T15:30:18;14.05;59.45
69598;SHT31;70000;51.176;-115.568;2023-07-20T15:32:50;14.13;59.25
69598;SHT31;70000;51.176;-115.568;2023-07-20T15:36:16;14.24;59.08
69598;SHT31;70000;51.176;-115.568;2023-07-20T15:38:48;14.33;58.90
69598;SHT31;70000;51.176;-115.568;2023-07-20T15:41:20;14.43;59.01
69598;SHT31;70000;51.176;-115.568;2023-07-20T15:43:50;14.54;58.99
69598;SHT31;70000;51.176;-115.568;2023-07-20T15:49:08;14.73;58.58